Time;durP1;ratioP1;P1;durP2;ratioP2;P2;SDS_P1;SDS_P2;PMS_P1;PMS_P2;Temp;Humidity;BMP_temperature;BMP_pressure;BME280_temperature;BME280_humidity;BME280_pressure;Samples;Min_cycle;Max_cycle;Signal;HPM_P1;HPM_P2
2023/05/15 00:01:37;;;;;;;3.50;1.97;;;9.80;99.90;;;;;;5114029;28;20514;-67
2023/05/15 00:04:04;;;;;;;5.83;2.63;;;9.90;99.90;;;;;;5113243;28;20447;-67
2023/05/15 00:06:31;;;;;;;3.07;1.50;;;10.30;99.90;;;;;;5114099;28;20550;-68
2023/05/15 00:08:58;;;;;;;3.77;2.23;;;10.50;99.90;;;;;;5111612;28;20489;-68
2023/05/15 00:11:26;;;;;;;5.60;2.97;;;10.70;99.90;;;;;;5113251;28;20812;-68
2023/05/15 00:13:53;;;;;;;2.97;1.77;;;10.50;99.90;;;;;;5113097;28;20447;-68
2023/05/15 00:16:20;;;;;;;3.73;2.13;;;10.30;99.90;;;;;;5113440;28;20934;-68
2023/05/15 00:18:47;;;;;;;3.43;1.87;;;10.10;99.90;;;;;;5112822;28;20447;-67
2023/05/15 00:21:14;;;;;;;3.30;2.03;;;10.10;99.90;;;;;;5113148;28;20813;-67
2023/05/15 00:23:40;;;;;;;3.40;2.00;;;10.20;99.90;;;;;;5113131;28;20501;-68
2023/05/15 00:26:07;;;;;;;2.63;1.53;;;10.00;99.90;;;;;;5113635;28;20446;-68
2023/05/15 00:28:35;;;;;;;4.53;2.60;;;10.10;99.90;;;;;;5113128;28;20448;-68
2023/05/15 00:31:02;;;;;;;3.87;2.40;;;10.10;99.90;;;;;;5112874;28;21077;-67
2023/05/15 00:33:30;;;;;;;3.70;2.40;;;10.10;99.90;;;;;;5113291;28;20459;-68
2023/05/15 00:35:56;;;;;;;4.10;2.37;;;10.10;99.90;;;;;;5112983;28;20797;-68
2023/05/15 00:38:23;;;;;;;3.50;2.27;;;10.10;99.90;;;;;;5113145;28;20463;-67
2023/05/15 00:40:51;;;;;;;5.83;2.37;;;10.40;99.90;;;;;;5112486;28;20475;-68
2023/05/15 00:43:18;;;;;;;2.10;1.47;;;10.40;99.90;;;;;;5112837;28;20444;-68
2023/05/15 00:45:48;;;;;;;2.60;1.70;;;10.30;99.90;;;;;;5112358;28;20448;-68
2023/05/15 00:48:15;;;;;;;2.30;1.73;;;10.30;99.90;;;;;;5111476;28;20455;-68
2023/05/15 00:50:42;;;;;;;4.13;2.20;;;10.40;99.90;;;;;;5112815;28;20473;-68
2023/05/15 00:53:10;;;;;;;2.50;1.90;;;10.50;99.90;;;;;;5112393;28;20447;-68
2023/05/15 00:55:38;;;;;;;2.97;2.03;;;10.50;99.90;;;;;;5113268;28;20459;-68
2023/05/15 00:58:05;;;;;;;6.17;1.93;;;10.40;99.90;;;;;;5112330;28;20439;-68
2023/05/15 01:00:33;;;;;;;3.07;1.67;;;10.30;99.90;;;;;;5111485;28;20479;-68
2023/05/15 01:03:01;;;;;;;2.77;1.50;;;10.20;99.90;;;;;;5111599;28;20450;-67
2023/05/15 01:05:28;;;;;;;2.30;1.50;;;10.20;99.90;;;;;;5112986;28;20444;-67
2023/05/15 01:08:05;;;;;;;4.37;2.13;;;10.20;99.90;;;;;;5111557;28;20813;-66
2023/05/15 01:10:34;;;;;;;5.17;2.50;;;10.20;99.90;;;;;;5112934;28;20447;-66
2023/05/15 01:13:02;;;;;;;3.27;2.10;;;10.20;99.90;;;;;;5111647;28;20453;-66
2023/05/15 01:15:29;;;;;;;3.17;2.03;;;10.50;99.90;;;;;;5112533;28;20481;-66
2023/05/15 01:17:56;;;;;;;3.57;2.33;;;10.50;99.90;;;;;;5111548;28;20444;-66
2023/05/15 01:20:26;;;;;;;4.97;2.10;;;10.30;99.90;;;;;;5112082;28;20562;-66
2023/05/15 01:23:09;;;;;;;4.93;2.50;;;10.20;99.90;;;;;;5111342;28;20452;-66
2023/05/15 01:25:55;;;;;;;2.80;1.43;;;;;;;;;;5112849;28;20440;-67
2023/05/15 01:28:26;;;;;;;2.33;1.30;;;;;;;;;;5111967;28;20447;-67
2023/05/15 01:30:55;;;;;;;3.63;2.27;;;;;;;;;;5111399;28;20454;-66
2023/05/15 01:33:25;;;;;;;3.20;1.80;;;;;;;;;;5106450;28;20458;-68
2023/05/15 01:35:56;;;;;;;3.43;2.13;;;;;;;;;;5111324;28;20785;-68
2023/05/15 01:38:26;;;;;;;2.57;2.20;;;;;;;;;;5112309;28;20456;-68
2023/05/15 01:40:57;;;;;;;2.73;2.00;;;;;;;;;;5110882;28;20520;-67
2023/05/15 01:43:28;;;;;;;2.93;1.43;;;;;;;;;;5108588;28;20489;-68
2023/05/15 01:45:56;;;;;;;2.87;1.83;;;;;;;;;;5111286;28;20439;-68
2023/05/15 01:48:23;;;;;;;2.57;1.37;;;;;;;;;;5112139;28;20785;-68
2023/05/15 01:50:52;;;;;;;4.00;1.30;;;;;;;;;;5110683;28;20452;-68
2023/05/15 01:53:19;;;;;;;3.20;1.60;;;;;;;;;;5111078;28;20530;-68
2023/05/15 01:55:48;;;;;;;3.30;2.30;;;;;;;;;;5111051;28;20444;-68
2023/05/15 01:58:15;;;;;;;2.47;1.50;;;;;;;;;;5111398;28;20443;-68
2023/05/15 02:00:44;;;;;;;2.33;1.40;;;;;;;;;;5109841;28;20471;-68
2023/05/15 02:03:11;;;;;;;2.33;1.60;;;;;;;;;;5111266;28;20444;-68
2023/05/15 02:05:38;;;;;;;2.43;1.60;;;;;;;;;;5111829;28;20865;-68
2023/05/15 02:08:06;;;;;;;2.57;1.63;;;;;;;;;;5110658;28;20470;-68
2023/05/15 02:10:34;;;;;;;3.53;2.17;;;;;;;;;;5111336;28;20440;-68
2023/05/15 02:13:02;;;;;;;2.93;1.87;;;;;;;;;;5110278;28;21257;-68
2023/05/15 02:15:29;;;;;;;2.33;1.57;;;;;;;;;;5111037;28;21243;-68
2023/05/15 02:17:58;;;;;;;3.00;1.83;;;;;;;;;;5110312;28;20443;-68
2023/05/15 02:20:25;;;;;;;3.13;2.20;;;;;;;;;;5111395;28;20773;-68
2023/05/15 02:22:52;;;;;;;2.80;2.00;;;;;;;;;;5110315;28;20443;-67
2023/05/15 02:25:19;;;;;;;2.67;1.50;;;;;;;;;;5111464;28;20443;-68
2023/05/15 02:27:48;;;;;;;2.73;1.80;;;;;;;;;;5110249;28;20493;-68
2023/05/15 02:30:25;;;;;;;3.17;1.90;;;;;;;;;;5111381;28;20448;-68
2023/05/15 02:32:57;;;;;;;2.87;1.83;;;;;;;;;;5110106;28;20492;-68
2023/05/15 02:35:27;;;;;;;4.83;1.90;;;;;;;;;;5111128;28;20443;-68
2023/05/15 02:37:56;;;;;;;2.97;2.07;;;;;;;;;;5109879;28;20949;-67
2023/05/15 02:40:24;;;;;;;2.83;1.93;;;;;;;;;;5111265;28;20447;-68
2023/05/15 02:42:53;;;;;;;2.90;1.70;;;;;;;;;;5110018;28;20487;-68
2023/05/15 02:45:20;;;;;;;3.20;1.90;;;;;;;;;;5111235;28;20444;-68
2023/05/15 02:47:49;;;;;;;2.10;1.63;;;;;;;;;;5109539;28;20443;-68
2023/05/15 02:50:16;;;;;;;3.90;2.20;;;10.10;99.90;;;;;;5098645;28;20444;-68
2023/05/15 02:52:44;;;;;;;3.60;2.10;;;10.80;99.90;;;;;;5109601;28;20493;-68
2023/05/15 02:55:11;;;;;;;2.80;1.73;;;10.90;99.90;;;;;;5111163;28;20456;-69
2023/05/15 02:57:38;;;;;;;3.13;2.07;;;11.00;99.90;;;;;;5110813;28;20479;-68
2023/05/15 03:00:10;;;;;;;3.67;2.10;;;10.80;99.90;;;;;;5109658;28;20786;-68
2023/05/15 03:02:37;;;;;;;2.23;1.53;;;10.60;99.90;;;;;;5106473;28;20463;-68
2023/05/15 03:05:04;;;;;;;2.70;1.70;;;10.50;99.90;;;;;;5109639;28;20470;-67
2023/05/15 03:07:31;;;;;;;4.03;1.83;;;10.40;99.90;;;;;;5110755;28;20814;-68
2023/05/15 03:09:59;;;;;;;2.67;1.33;;;10.50;99.90;;;;;;5110213;28;21275;-68
2023/05/15 03:12:26;;;;;;;2.10;1.13;;;10.40;99.90;;;;;;5110729;28;20448;-68
2023/05/15 03:14:53;;;;;;;2.70;1.57;;;10.50;99.90;;;;;;5109599;28;20452;-68
2023/05/15 03:17:20;;;;;;;2.03;1.23;;;10.60;99.90;;;;;;5111048;28;20451;-68
2023/05/15 03:19:46;;;;;;;2.47;1.70;;;10.90;99.90;;;;;;5110061;28;20448;-68
2023/05/15 03:22:14;;;;;;;2.60;1.80;;;10.90;99.90;;;;;;5109792;28;20476;-68
2023/05/15 03:24:40;;;;;;;3.80;1.87;;;10.70;99.90;;;;;;5112956;28;20454;-68
2023/05/15 03:27:09;;;;;;;2.40;1.57;;;10.50;99.90;;;;;;5114671;28;20814;-68
2023/05/15 03:29:35;;;;;;;2.80;1.70;;;10.60;99.90;;;;;;5114874;28;20459;-68
2023/05/15 03:32:02;;;;;;;2.90;1.87;;;10.50;99.90;;;;;;5112171;28;20447;-67
2023/05/15 03:34:29;;;;;;;4.13;1.80;;;10.60;99.90;;;;;;5114003;28;21081;-68
2023/05/15 03:36:56;;;;;;;3.10;1.50;;;10.50;99.90;;;;;;5113947;28;20443;-68
2023/05/15 03:39:22;;;;;;;3.23;2.13;;;10.90;99.90;;;;;;5114240;28;20451;-68
2023/05/15 03:41:49;;;;;;;2.93;1.80;;;11.20;99.90;;;;;;5113544;28;20516;-68
2023/05/15 03:44:17;;;;;;;3.53;2.07;;;11.20;99.90;;;;;;5114054;28;20448;-68
2023/05/15 03:46:44;;;;;;;3.10;2.30;;;10.80;99.90;;;;;;5113874;28;20462;-68
2023/05/15 03:49:11;;;;;;;3.17;2.33;;;10.90;99.90;;;;;;5114479;28;20460;-70
2023/05/15 03:51:37;;;;;;;2.30;1.50;;;11.10;99.90;;;;;;5114001;28;20456;-69
2023/05/15 03:54:05;;;;;;;3.10;2.30;;;11.20;99.90;;;;;;5113457;28;20446;-69
2023/05/15 03:56:32;;;;;;;3.30;2.13;;;;;;;;;;5113826;28;20518;-69
2023/05/15 03:58:59;;;;;;;2.30;1.50;;;;;;;;;;5113217;28;20451;-69
2023/05/15 04:01:28;;;;;;;2.83;1.70;;;;;;;;;;5113485;28;20479;-69
2023/05/15 04:03:55;;;;;;;2.87;1.63;;;;;;;;;;5112901;28;20458;-69
2023/05/15 04:06:22;;;;;;;2.23;1.43;;;;;;;;;;5113949;28;20448;-69
2023/05/15 04:08:50;;;;;;;2.87;1.93;;;;;;;;;;5113114;28;20880;-69
2023/05/15 04:11:17;;;;;;;2.63;1.63;;;;;;;;;;5113649;28;20447;-69
2023/05/15 04:13:44;;;;;;;2.83;1.70;;;;;;;;;;5113179;28;20444;-69
2023/05/15 04:16:11;;;;;;;3.70;1.90;;;;;;;;;;5113299;28;20451;-69
2023/05/15 04:18:39;;;;;;;2.63;1.47;;;;;;;;;;5113897;28;20443;-69
2023/05/15 04:21:06;;;;;;;2.70;1.90;;;;;;;;;;5113095;28;20444;-69
2023/05/15 04:23:33;;;;;;;2.27;1.40;;;;;;;;;;5113569;28;20440;-69
2023/05/15 04:26:01;;;;;;;2.50;1.53;;;;;;;;;;5113008;28;20455;-69
2023/05/15 04:28:28;;;;;;;2.40;1.60;;;;;;;;;;5113297;28;20443;-69
2023/05/15 04:30:57;;;;;;;3.33;2.17;;;;;;;;;;5112176;28;20447;-69
2023/05/15 04:33:24;;;;;;;4.20;1.97;;;;;;;;;;5113096;28;20985;-69
2023/05/15 04:35:53;;;;;;;3.40;2.47;;;;;;;;;;5111547;28;20451;-69
2023/05/15 04:38:20;;;;;;;2.80;1.73;;;;;;;;;;5113133;28;20501;-69
2023/05/15 04:40:47;;;;;;;2.63;1.80;;;;;;;;;;5112145;28;20446;-69
2023/05/15 04:43:14;;;;;;;2.73;1.90;;;;;;;;;;5112893;28;20831;-69
2023/05/15 04:45:41;;;;;;;3.27;1.70;;;;;;;;;;5112361;28;20504;-69
2023/05/15 04:48:08;;;;;;;2.77;2.03;;;;;;;;;;5113436;28;20439;-69
2023/05/15 04:50:36;;;;;;;4.03;2.30;;;;;;;;;;5112015;28;20452;-69
2023/05/15 04:53:04;;;;;;;2.40;1.60;;;;;;;;;;5107506;28;20452;-69
2023/05/15 04:55:31;;;;;;;2.80;1.83;;;;;;;;;;5108982;28;20492;-69
2023/05/15 04:58:00;;;;;;;4.60;2.30;;;;;;;;;;5112115;28;20739;-69
2023/05/15 05:00:28;;;;;;;2.30;1.70;;;;;;;;;;5110219;28;20433;-69
2023/05/15 05:02:55;;;;;;;3.00;2.13;;;;;;;;;;5111800;28;20475;-69
2023/05/15 05:05:22;;;;;;;3.40;2.17;;;;;;;;;;5112775;28;20451;-68
2023/05/15 05:07:50;;;;;;;3.03;2.10;;;;;;;;;;5112151;28;20459;-68
2023/05/15 05:10:20;;;;;;;2.90;1.97;;;;;;;;;;5112258;28;20828;-68
2023/05/15 05:12:47;;;;;;;2.47;1.80;;;;;;;;;;5111700;28;20547;-68
2023/05/15 05:15:14;;;;;;;3.30;1.60;;;;;;;;;;5112363;28;20536;-68
2023/05/15 05:17:41;;;;;;;3.20;1.87;;;;;;;;;;5111547;28;20456;-68
2023/05/15 05:20:09;;;;;;;3.07;2.57;;;;;;;;;;5111586;28;20456;-68
2023/05/15 05:22:38;;;;;;;5.00;2.57;;;11.30;99.90;;;;;;5112161;28;20486;-68
2023/05/15 05:25:06;;;;;;;3.97;2.97;;;12.90;69.80;;;;;;5111770;28;20455;-68
2023/05/15 05:27:34;;;;;;;3.77;2.43;;;13.00;1.00;;;;;;5112375;28;20977;-69
2023/05/15 05:30:02;;;;;;;4.83;2.37;;;13.20;1.00;;;;;;5111302;28;20536;-67
2023/05/15 05:32:28;;;;;;;4.00;2.73;;;13.20;1.00;;;;;;5112054;28;20452;-68
2023/05/15 05:34:55;;;;;;;3.40;2.10;;;13.20;1.00;;;;;;5111804;28;20447;-68
2023/05/15 05:37:22;;;;;;;4.07;2.30;;;13.30;1.00;;;;;;5110744;28;20572;-68
2023/05/15 05:39:49;;;;;;;5.20;3.03;;;13.40;1.00;;;;;;5110558;28;20447;-68
2023/05/15 05:42:16;;;;;;;3.70;2.47;;;13.40;1.00;;;;;;5111698;28;20472;-68
2023/05/15 05:44:44;;;;;;;3.87;2.60;;;13.50;1.00;;;;;;5111301;28;20930;-68
2023/05/15 05:47:10;;;;;;;3.87;2.70;;;13.50;1.00;;;;;;5111543;28;20444;-68
2023/05/15 05:49:38;;;;;;;3.13;2.20;;;13.50;1.00;;;;;;5111701;28;20452;-70
2023/05/15 05:52:07;;;;;;;4.20;2.47;;;13.60;99.90;;;;;;5109989;28;20874;-68
2023/05/15 05:54:33;;;;;;;3.33;2.27;;;13.50;99.90;;;;;;5111883;28;20508;-69
2023/05/15 05:57:00;;;;;;;3.27;2.50;;;13.50;99.90;;;;;;5111145;28;21102;-69
2023/05/15 05:59:28;;;;;;;5.80;2.93;;;13.70;99.90;;;;;;5110166;28;20448;-69
2023/05/15 06:01:56;;;;;;;3.70;2.30;;;13.70;1.00;;;;;;5110202;28;20494;-69
2023/05/15 06:04:23;;;;;;;4.13;2.50;;;13.70;1.00;;;;;;5111221;28;20451;-69
2023/05/15 06:06:49;;;;;;;4.80;2.67;;;13.80;1.00;;;;;;5110024;28;20512;-68
2023/05/15 06:09:16;;;;;;;4.67;2.03;;;13.70;1.00;;;;;;5118874;27;20490;-69
2023/05/15 06:11:44;;;;;;;4.07;3.53;;;13.80;1.00;;;;;;5110008;28;20938;-68
2023/05/15 06:14:11;;;;;;;3.20;2.50;;;13.90;41.70;;;;;;5111311;28;20504;-69
2023/05/15 06:16:38;;;;;;;3.87;2.83;;;13.90;1.00;;;;;;5110847;28;20475;-67
2023/05/15 06:19:06;;;;;;;5.37;3.60;;;13.90;1.00;;;;;;5110758;28;20562;-68
2023/05/15 06:21:33;;;;;;;5.60;3.97;;;13.90;1.00;;;;;;5109057;28;20452;-68
2023/05/15 06:24:00;;;;;;;3.00;2.30;;;13.90;1.00;;;;;;5109274;28;20592;-68
2023/05/15 06:26:27;;;;;;;2.87;2.20;;;;;;;;;;5110164;28;20501;-68
2023/05/15 06:28:54;;;;;;;4.60;2.70;;;;;;;;;;5108926;28;20443;-68
2023/05/15 06:31:21;;;;;;;6.60;3.60;;;;;;;;;;5109906;28;20479;-68
2023/05/15 06:33:48;;;;;;;4.83;2.77;;;;;;;;;;5108516;28;20456;-68
2023/05/15 06:36:17;;;;;;;4.40;2.87;;;;;;;;;;5110505;28;20444;-67
2023/05/15 06:38:44;;;;;;;4.77;3.00;;;;;;;;;;5108338;28;20510;-68
2023/05/15 06:41:11;;;;;;;3.17;2.43;;;;;;;;;;5110038;28;20447;-67
2023/05/15 06:43:38;;;;;;;3.40;2.43;;;;;;;;;;5099392;28;20475;-67
2023/05/15 06:46:05;;;;;;;3.90;2.50;;;;;;;;;;5109667;28;20440;-67
2023/05/15 06:48:32;;;;;;;4.33;2.60;;;;;;;;;;5109865;28;20463;-72
2023/05/15 06:51:00;;;;;;;4.20;2.40;;;;;;;;;;5107680;28;20439;-73
2023/05/15 06:53:29;;;;;;;4.30;2.87;;;;;;;;;;5110147;28;20448;-72
2023/05/15 06:55:57;;;;;;;6.40;2.73;;;;;;;;;;5108319;28;20439;-72
2023/05/15 06:58:24;;;;;;;4.90;3.10;;;;;;;;;;5108879;28;20458;-72
2023/05/15 07:00:51;;;;;;;4.93;2.43;;;;;;;;;;5112409;28;20440;-72
2023/05/15 07:03:18;;;;;;;5.20;3.30;;;;;;;;;;5113939;28;20474;-72
2023/05/15 07:05:45;;;;;;;3.77;2.40;;;;;;;;;;5113650;28;20447;-71
2023/05/15 07:08:13;;;;;;;3.37;2.20;;;;;;;;;;5113485;28;20447;-71
2023/05/15 07:10:41;;;;;;;3.17;2.00;;;;;;;;;;5108302;28;20439;-70
2023/05/15 07:13:08;;;;;;;3.27;2.33;;;;;;;;;;5114074;28;20439;-72
2023/05/15 07:15:35;;;;;;;3.53;2.43;;;;;;;;;;5109961;28;20447;-73
2023/05/15 07:18:02;;;;;;;3.30;2.40;;;;;;;;;;5105228;28;20519;-72
2023/05/15 07:20:29;;;;;;;4.43;2.10;;;;;;;;;;5113873;28;20451;-72
2023/05/15 07:22:57;;;;;;;3.90;2.00;;;;;;;;;;5111654;28;20486;-74
2023/05/15 07:25:24;;;;;;;2.73;1.77;;;;;;;;;;5115039;27;20443;-73
2023/05/15 07:27:52;;;;;;;3.87;1.60;;;;;;;;;;5113043;27;20451;-72
2023/05/15 07:30:19;;;;;;;3.73;1.67;;;;;;;;;;5112601;28;20981;-72
2023/05/15 07:32:46;;;;;;;2.80;1.77;;;14.00;53.40;;;;;;5112348;28;20447;-73
2023/05/15 07:35:13;;;;;;;2.20;1.70;;;15.60;3.30;;;;;;5113793;27;20444;-73
2023/05/15 07:37:40;;;;;;;2.43;1.50;;;15.70;1.00;;;;;;5115437;27;20467;-71
2023/05/15 07:40:08;;;;;;;2.40;1.50;;;16.20;99.90;;;;;;5113823;28;20946;-78
2023/05/15 07:42:35;;;;;;;2.93;1.63;;;16.20;1.00;;;;;;5113881;28;20475;-72
2023/05/15 07:45:03;;;;;;;2.90;1.73;;;16.00;1.00;;;;;;5112702;27;20454;-75
2023/05/15 07:47:30;;;;;;;1.87;1.20;;;16.10;1.00;;;;;;5113347;28;21021;-71
2023/05/15 07:49:56;;;;;;;2.27;1.50;;;16.10;1.00;;;;;;5111774;28;20497;-70
2023/05/15 07:52:23;;;;;;;2.73;1.97;;;16.20;1.00;;;;;;5112483;28;20828;-73
2023/05/15 07:54:50;;;;;;;2.30;1.50;;;16.00;1.00;;;;;;5113044;28;20443;-69
2023/05/15 07:57:17;;;;;;;4.13;2.17;;;16.00;1.00;;;;;;5113227;28;20488;-72
2023/05/15 07:59:44;;;;;;;2.60;1.77;;;16.00;1.00;;;;;;5111882;28;20485;-72
2023/05/15 08:02:12;;;;;;;2.30;1.60;;;16.10;1.00;;;;;;5112251;28;20444;-70
2023/05/15 08:04:38;;;;;;;2.90;1.80;;;16.20;1.00;;;;;;5112431;28;20452;-71
2023/05/15 08:07:07;;;;;;;3.30;1.60;;;16.40;1.00;;;;;;5112771;27;20439;-71
2023/05/15 08:09:33;;;;;;;2.50;1.63;;;16.70;1.00;;;;;;5113457;28;20471;-76
2023/05/15 08:12:19;;;;;;;2.27;1.63;;;16.70;1.00;;;;;;5113149;28;20488;-74
2023/05/15 08:14:47;;;;;;;1.70;1.10;;;16.60;99.90;;;;;;5113183;28;20443;-75
2023/05/15 08:17:15;;;;;;;2.60;1.50;;;16.50;99.90;;;;;;5113672;28;20933;-74
2023/05/15 08:19:42;;;;;;;2.47;1.57;;;16.70;99.90;;;;;;5113263;28;20489;-73
2023/05/15 08:22:09;;;;;;;2.37;1.63;;;16.80;99.90;;;;;;5109747;28;20436;-73
2023/05/15 08:24:35;;;;;;;1.83;1.40;;;17.00;99.90;;;;;;5113662;28;20471;-73
2023/05/15 08:27:02;;;;;;;1.60;1.23;;;17.20;99.90;;;;;;5112960;28;20439;-72
2023/05/15 08:29:29;;;;;;;2.60;1.60;;;17.20;99.90;;;;;;5113595;28;20442;-74
2023/05/15 08:31:56;;;;;;;2.80;2.03;;;17.00;99.90;;;;;;5112388;28;20519;-71
2023/05/15 08:34:25;;;;;;;3.20;2.00;;;17.00;99.90;;;;;;5111805;28;20514;-73
2023/05/15 08:36:52;;;;;;;2.00;1.10;;;16.90;99.90;;;;;;5112489;28;20797;-73
2023/05/15 08:39:19;;;;;;;1.60;1.20;;;16.90;99.90;;;;;;5113484;28;20455;-73
2023/05/15 08:41:56;;;;;;;2.03;1.20;;;16.70;99.90;;;;;;5112377;28;20454;-73
2023/05/15 08:44:23;;;;;;;2.80;1.40;;;16.80;99.90;;;;;;5113231;28;20471;-73
2023/05/15 08:46:52;;;;;;;2.03;1.33;;;17.00;99.90;;;;;;5112115;28;20935;-73
2023/05/15 08:49:24;;;;;;;2.87;1.53;;;17.10;99.90;;;;;;5112875;28;20931;-74
2023/05/15 08:51:53;;;;;;;3.40;1.80;;;17.20;99.90;;;;;;5111460;28;20432;-73
2023/05/15 08:54:19;;;;;;;2.87;1.70;;;17.40;99.90;;;;;;5112838;28;20448;-73
2023/05/15 08:56:47;;;;;;;2.30;1.20;;;17.60;99.90;;;;;;5112118;28;20459;-73
2023/05/15 08:59:13;;;;;;;2.30;1.50;;;17.40;99.90;;;;;;5112409;28;20447;-73
2023/05/15 09:01:40;;;;;;;2.30;1.70;;;17.50;99.90;;;;;;5111915;28;20447;-73
2023/05/15 09:04:07;;;;;;;2.90;2.00;;;17.60;99.90;;;;;;5112647;28;20483;-73
2023/05/15 09:06:34;;;;;;;2.37;1.67;;;17.90;99.90;;;;;;5112263;28;20446;-74
2023/05/15 09:09:04;;;;;;;1.80;1.30;;;17.80;99.90;;;;;;5111446;28;20582;-73
2023/05/15 09:11:32;;;;;;;2.77;1.90;;;17.80;99.90;;;;;;5111624;28;20934;-72
2023/05/15 09:14:00;;;;;;;1.93;1.20;;;17.60;99.90;;;;;;5106081;28;20453;-72
2023/05/15 09:16:27;;;;;;;2.33;1.70;;;17.80;99.90;;;;;;5111799;28;20440;-71
2023/05/15 09:18:54;;;;;;;2.73;1.70;;;18.20;99.90;;;;;;5111637;28;20463;-72
2023/05/15 09:21:22;;;;;;;2.10;1.40;;;18.40;99.90;;;;;;5111868;28;20444;-75
2023/05/15 09:23:49;;;;;;;2.23;1.43;;;18.40;99.90;;;;;;5111934;28;20528;-73
2023/05/15 09:26:17;;;;;;;3.13;2.30;;;18.40;99.90;;;;;;5111659;28;20447;-73
2023/05/15 09:28:44;;;;;;;1.80;1.40;;;18.60;99.90;;;;;;5111421;28;20922;-73
2023/05/15 09:31:11;;;;;;;2.10;1.80;;;18.40;99.90;;;;;;5112695;28;20535;-74
2023/05/15 09:33:40;;;;;;;2.30;1.37;;;18.00;99.90;;;;;;5113002;28;20525;-73
2023/05/15 09:36:09;;;;;;;2.60;1.90;;;18.00;99.90;;;;;;5112146;28;20454;-74
2023/05/15 09:38:40;;;;;;;4.90;1.90;;;17.70;99.90;;;;;;5112808;28;20521;-74
2023/05/15 09:41:08;;;;;;;3.03;1.50;;;17.50;99.90;;;;;;5112658;28;20440;-73
2023/05/15 09:43:38;;;;;;;2.20;1.70;;;17.70;99.90;;;;;;5111256;28;20507;-73
2023/05/15 09:46:06;;;;;;;2.63;1.80;;;17.60;99.90;;;;;;5110795;28;20519;-76
2023/05/15 09:48:35;;;;;;;3.23;1.30;;;17.80;99.90;;;;;;5111073;28;20530;-72
2023/05/15 09:51:04;;;;;;;2.60;1.50;;;18.20;99.90;;;;;;5111235;28;20689;-72
2023/05/15 09:53:32;;;;;;;1.87;1.67;;;18.30;99.90;;;;;;5111041;28;20811;-72
2023/05/15 09:55:59;;;;;;;2.57;2.10;;;18.50;99.90;;;;;;5116270;27;20447;-72
2023/05/15 09:58:25;;;;;;;3.33;1.90;;;18.70;99.90;;;;;;5111285;28;20440;-72
2023/05/15 10:00:54;;;;;;;2.47;1.73;;;18.70;99.90;;;;;;5110343;28;20442;-73
2023/05/15 10:03:20;;;;;;;1.80;1.30;;;18.80;99.90;;;;;;5111768;28;20839;-71
2023/05/15 10:05:47;;;;;;;2.57;1.73;;;18.80;99.90;;;;;;5110513;28;20446;-71
2023/05/15 10:08:14;;;;;;;1.90;1.50;;;18.90;99.90;;;;;;5110880;28;20542;-71
2023/05/15 10:10:42;;;;;;;2.53;2.00;;;19.00;99.90;;;;;;5110944;28;20500;-71
2023/05/15 10:13:09;;;;;;;2.20;1.47;;;18.50;99.90;;;;;;5111909;28;20521;-71
2023/05/15 10:15:37;;;;;;;3.00;1.70;;;18.30;99.90;;;;;;5111799;28;20455;-71
2023/05/15 10:18:06;;;;;;;2.23;1.80;;;18.70;99.90;;;;;;5111624;28;20501;-71
2023/05/15 10:20:35;;;;;;;2.83;1.73;;;18.70;99.90;;;;;;5110524;28;20458;-74
2023/05/15 10:23:04;;;;;;;2.40;1.80;;;18.90;99.90;;;;;;5113444;27;20557;-76
2023/05/15 10:25:36;;;;;;;2.63;1.80;;;19.20;99.90;;;;;;5114845;27;20434;-73
2023/05/15 10:28:03;;;;;;;2.07;1.40;;;19.40;99.90;;;;;;5110432;28;20986;-72
2023/05/15 10:30:32;;;;;;;2.50;1.70;;;19.60;99.90;;;;;;5111329;28;20805;-72
2023/05/15 10:32:59;;;;;;;3.00;1.87;;;19.40;99.90;;;;;;5110700;28;20763;-73
2023/05/15 10:35:28;;;;;;;2.70;1.60;;;19.60;99.90;;;;;;5111490;28;20467;-73
2023/05/15 10:37:55;;;;;;;2.13;1.40;;;19.70;99.90;;;;;;5110160;28;20466;-76
2023/05/15 10:40:23;;;;;;;1.90;1.40;;;19.20;99.90;;;;;;5110128;28;20451;-72
2023/05/15 10:42:50;;;;;;;2.57;1.50;;;18.90;99.90;;;;;;5108382;28;20810;-73
2023/05/15 10:45:17;;;;;;;2.20;1.27;;;19.20;99.90;;;;;;5108778;28;20481;-73
2023/05/15 10:47:45;;;;;;;3.50;1.97;;;;;;;;;;5108374;28;20785;-70
2023/05/15 10:50:13;;;;;;;2.30;1.40;;;;;;;;;;5110305;28;20466;-72
2023/05/15 10:52:42;;;;;;;2.40;1.67;;;;;;;;;;5109214;28;20447;-68
2023/05/15 10:55:10;;;;;;;1.80;1.20;;;;;;;;;;5107031;28;20471;-71
2023/05/15 10:57:38;;;;;;;2.17;1.70;;;;;;;;;;5109251;28;20451;-71
2023/05/15 11:00:24;;;;;;;1.90;1.40;;;;;;;;;;5108526;28;20444;-72
2023/05/15 11:02:52;;;;;;;2.00;1.43;;;;;;;;;;5108712;28;20958;-69
2023/05/15 11:05:20;;;;;;;2.10;1.70;;;;;;;;;;5109065;28;20482;-70
2023/05/15 11:08:11;;;;;;;2.07;1.67;;;;;;;;;;5108519;28;20469;-70
2023/05/15 11:10:39;;;;;;;1.77;1.20;;;;;;;;;;5068945;28;20453;-71
2023/05/15 11:13:06;;;;;;;3.00;1.20;;;;;;;;;;5068415;28;20476;-71
2023/05/15 11:15:42;;;;;;;1.57;1.40;;;;;;;;;;5068924;28;20453;-70
2023/05/15 11:18:09;;;;;;;1.60;1.00;;;;;;;;;;5067358;28;20512;-71
2023/05/15 11:20:40;;;;;;;1.60;1.20;;;;;;;;;;5069185;28;20445;-71
2023/05/15 11:23:08;;;;;;;1.80;1.40;;;;;;;;;;5068923;28;20528;-72
2023/05/15 11:25:36;;;;;;;2.13;1.30;;;;;;;;;;5068640;28;21011;-73
2023/05/15 11:28:03;;;;;;;3.23;1.20;;;;;;;;;;5064617;28;20442;-72
2023/05/15 11:30:37;;;;;;;1.80;1.40;;;;;;;;;;5066888;28;20453;-74
2023/05/15 11:33:07;;;;;;;2.47;1.37;;;;;;;;;;5067400;28;20937;-72
2023/05/15 11:35:35;;;;;;;1.90;1.60;;;;;;;;;;5068598;28;20850;-72
2023/05/15 11:38:03;;;;;;;1.63;1.23;;;;;;;;;;5068629;28;20488;-72
2023/05/15 11:40:32;;;;;;;1.50;0.97;;;;;;;;;;5067491;28;20955;-72
2023/05/15 11:43:07;;;;;;;2.30;1.10;;;19.70;99.90;;;;;;5067526;28;21082;-71
2023/05/15 11:45:36;;;;;;;2.13;1.30;;;20.50;22.30;;;;;;5071125;28;20830;-72
2023/05/15 11:48:05;;;;;;;1.60;1.20;;;20.60;18.70;;;;;;5071992;28;20648;-71
2023/05/15 11:50:33;;;;;;;2.30;1.30;;;20.80;18.90;;;;;;5073261;28;20889;-72
2023/05/15 11:53:04;;;;;;;3.00;1.77;;;21.40;21.00;;;;;;5071151;28;20734;-73
2023/05/15 11:55:33;;;;;;;1.80;1.23;;;21.10;22.20;;;;;;5072326;28;20452;-72
2023/05/15 11:58:00;;;;;;;1.67;1.10;;;21.10;21.80;;;;;;5072130;28;20448;-72
2023/05/15 12:00:27;;;;;;;1.50;1.03;;;21.20;17.80;;;;;;5073218;28;20449;-72
2023/05/15 12:02:54;;;;;;;1.97;1.30;;;20.90;16.20;;;;;;5072463;28;20450;-71
2023/05/15 12:05:22;;;;;;;2.33;1.53;;;20.50;17.50;;;;;;5072693;28;20571;-70
2023/05/15 12:07:49;;;;;;;1.37;1.10;;;20.10;18.90;;;;;;5071950;28;20453;-73
2023/05/15 12:10:16;;;;;;;1.93;1.27;;;19.80;23.90;;;;;;5111548;28;20519;-73
2023/05/15 12:12:45;;;;;;;2.03;1.63;;;20.00;34.00;;;;;;5113173;28;20440;-73
2023/05/15 12:15:13;;;;;;;2.50;1.60;;;20.60;22.90;;;;;;5112869;28;20451;-74
2023/05/15 12:17:41;;;;;;;2.20;1.60;;;21.10;18.30;;;;;;5112318;28;20810;-74
2023/05/15 12:20:10;;;;;;;1.80;1.40;;;21.60;15.90;;;;;;5111598;28;20961;-74
2023/05/15 12:22:38;;;;;;;2.20;1.40;;;21.80;11.30;;;;;;5111620;28;20476;-74
2023/05/15 12:25:06;;;;;;;2.43;1.43;;;21.20;9.80;;;;;;5112957;28;20471;-76
2023/05/15 12:27:34;;;;;;;1.93;1.60;;;20.80;14.90;;;;;;5113268;28;20503;-77
2023/05/15 12:30:04;;;;;;;2.53;1.90;;;20.30;19.30;;;;;;5113097;28;20440;-76
2023/05/15 12:32:32;;;;;;;1.90;1.43;;;20.30;20.50;;;;;;5113798;28;20436;-76
2023/05/15 12:34:59;;;;;;;1.90;1.43;;;20.30;20.90;;;;;;5113000;28;21008;-77
2023/05/15 12:37:26;;;;;;;1.77;1.23;;;20.20;22.00;;;;;;5113465;28;20443;-77
2023/05/15 12:39:55;;;;;;;2.33;1.60;;;20.30;13.50;;;;;;5112489;28;20444;-75
2023/05/15 12:42:22;;;;;;;1.67;1.20;;;20.70;14.50;;;;;;5113318;28;20436;-74
2023/05/15 12:44:52;;;;;;;1.73;1.30;;;21.10;8.10;;;;;;5110814;28;20471;-75
2023/05/15 12:47:27;;;;;;;2.37;1.80;;;21.20;3.80;;;;;;5110853;28;20444;-74
2023/05/15 12:49:58;;;;;;;1.90;1.60;;;21.70;2.30;;;;;;5111542;28;20451;-74
2023/05/15 12:52:28;;;;;;;1.87;1.23;;;22.10;9.10;;;;;;5111593;28;20440;-74
2023/05/15 12:54:56;;;;;;;1.80;1.50;;;22.80;1.00;;;;;;5111368;28;20466;-75
2023/05/15 12:57:23;;;;;;;2.10;1.80;;;21.90;1.00;;;;;;5110544;28;20444;-75
2023/05/15 12:59:51;;;;;;;2.07;1.80;;;21.40;1.60;;;;;;5109820;28;20444;-76
2023/05/15 13:02:18;;;;;;;1.87;1.67;;;21.50;2.60;;;;;;5110652;28;20436;-74
2023/05/15 13:04:47;;;;;;;1.90;1.70;;;21.20;2.70;;;;;;5109792;28;20486;-74
2023/05/15 13:07:16;;;;;;;1.90;1.63;;;21.50;3.90;;;;;;5111936;28;21038;-74
2023/05/15 13:09:45;;;;;;;1.83;1.60;;;20.80;7.30;;;;;;5111696;28;20471;-73
2023/05/15 13:12:12;;;;;;;2.13;1.40;;;20.50;11.20;;;;;;5111781;28;20447;-73
2023/05/15 13:14:39;;;;;;;1.90;1.17;;;20.30;14.20;;;;;;5112338;28;20462;-71
2023/05/15 13:17:05;;;;;;;2.87;1.40;;;20.30;16.80;;;;;;5111740;28;20463;-75
2023/05/15 13:19:32;;;;;;;1.80;1.17;;;20.60;14.00;;;;;;5112237;28;20478;-74
2023/05/15 13:22:00;;;;;;;2.37;1.50;;;21.00;12.10;;;;;;5111960;28;20527;-73
2023/05/15 13:24:28;;;;;;;2.10;1.80;;;20.90;10.30;;;;;;5111750;28;20579;-74
2023/05/15 13:26:55;;;;;;;2.03;1.77;;;20.60;10.70;;;;;;5110894;28;20455;-74
2023/05/15 13:29:22;;;;;;;2.87;1.90;;;20.50;10.90;;;;;;5111477;28;20452;-74
2023/05/15 13:31:48;;;;;;;1.80;1.60;;;20.30;10.90;;;;;;5110766;28;20443;-73